Time,TemperatureF,DewpointF,PressureIn,WindDirection,WindDirectionDegrees,WindSpeedMPH,WindSpeedGustMPH,Humidity,HourlyPrecipIn,Conditions,Clouds,dailyrainin,SoftwareType,DateUTC
2013-09-22 00:01:00,70.0,70.0,29.68,South,171,3.0,7.4,100,0.18,,,0.00,WUHU21623XXSP,2013-09-22 04:01:00,
2013-09-22 00:06:00,70.0,70.0,29.68,SE,135,2.7,5.1,100,0.22,,,0.04,WUHU21623XXSP,2013-09-22 04:06:00,
2013-09-22 00:11:00,70.0,70.0,29.68,SSE,157,4.5,9.2,100,0.24,,,0.06,WUHU21623XXSP,2013-09-22 04:11:00,
2013-09-22 00:16:00,70.0,70.0,29.68,SW,225,6.0,12.8,100,0.26,,,0.08,WUHU21623XXSP,2013-09-22 04:16:00,
2013-09-22 00:21:00,70.0,70.0,29.68,South,189,7.2,12.8,100,0.28,,,0.10,WUHU21623XXSP,2013-09-22 04:21:00,
2013-09-22 00:27:00,69.8,69.8,29.67,SW,226,2.1,11.4,100,0.28,,,0.10,WUHU21623XXSP,2013-09-22 04:27:00,
2013-09-22 00:32:00,69.8,69.8,29.67,SSW,202,1.9,7.6,100,0.37,,,0.23,WUHU21623XXSP,2013-09-22 04:32:00,
2013-09-22 00:37:00,69.6,69.6,29.67,SSE,156,5.6,8.7,100,0.35,,,0.27,WUHU21623XXSP,2013-09-22 04:37:00,
2013-09-22 00:42:00,69.4,69.4,29.68,SSW,202,14.8,14.8,100,0.37,,,0.31,WUHU21623XXSP,2013-09-22 04:42:00,
2013-09-22 00:47:00,69.4,69.4,29.66,South,180,2.0,19.5,100,0.47,,,0.45,WUHU21623XXSP,2013-09-22 04:47:00,
2013-09-22 00:52:00,69.4,69.4,29.66,SW,225,9.2,19.5,100,0.47,,,0.47,WUHU21623XXSP,2013-09-22 04:52:00,
2013-09-22 00:57:00,69.3,69.3,29.66,South,186,4.2,17.7,100,0.47,,,0.47,WUHU21623XXSP,2013-09-22 04:57:00,
2013-09-22 01:02:00,69.3,69.3,29.66,SSW,202,5.1,17.7,100,0.49,,,0.49,WUHU21623XXSP,2013-09-22 05:02:00,
2013-09-22 01:07:00,69.1,69.1,29.66,SSW,202,8.9,11.0,100,0.47,,,0.51,WUHU21623XXSP,2013-09-22 05:07:00,
2013-09-22 01:12:00,68.9,68.9,29.66,SSW,212,4.7,12.5,100,0.45,,,0.51,WUHU21623XXSP,2013-09-22 05:12:00,
2013-09-22 01:17:00,68.9,68.9,29.67,North,0,1.6,12.5,100,0.45,,,0.53,WUHU21623XXSP,2013-09-22 05:17:00,
2013-09-22 01:22:00,68.7,68.7,29.67,North,0,4.3,7.2,100,0.45,,,0.55,WUHU21623XXSP,2013-09-22 05:22:00,
2013-09-22 01:27:00,68.4,68.4,29.67,NNE,22,0.6,5.6,100,0.43,,,0.55,WUHU21623XXSP,2013-09-22 05:27:00,
2013-09-22 01:32:00,67.6,67.6,29.67,NNW,337,0.0,5.6,100,0.36,,,0.59,WUHU21623XXSP,2013-09-22 05:32:00,
2013-09-22 01:37:00,67.5,67.5,29.68,NNW,337,0.0,2.5,100,0.34,,,0.61,WUHU21623XXSP,2013-09-22 05:37:00,
2013-09-22 01:42:00,66.9,66.9,29.67,NNE,22,0.3,3.8,100,0.32,,,0.63,WUHU21623XXSP,2013-09-22 05:42:00,
2013-09-22 01:47:00,66.4,66.4,29.67,North,6,0.5,3.8,100,0.18,,,0.65,WUHU21623XXSP,2013-09-22 05:47:00,
2013-09-22 01:52:00,65.8,65.8,29.66,NNW,337,0.3,3.8,100,0.20,,,0.67,WUHU21623XXSP,2013-09-22 05:52:00,
2013-09-22 01:57:00,65.5,65.5,29.67,North,0,0.1,2.2,100,0.22,,,0.69,WUHU21623XXSP,2013-09-22 05:57:00,
2013-09-22 02:02:00,65.3,65.3,29.68,North,0,0.0,1.1,100,0.20,,,0.69,WUHU21623XXSP,2013-09-22 06:02:00,
2013-09-22 02:07:00,65.1,65.1,29.68,North,0,0.0,0.0,100,0.20,,,0.71,WUHU21623XXSP,2013-09-22 06:07:00,
2013-09-22 02:12:00,65.1,65.1,29.68,North,0,0.0,0.0,100,0.22,,,0.73,WUHU21623XXSP,2013-09-22 06:12:00,
2013-09-22 02:17:00,64.9,64.9,29.67,North,0,0.0,0.0,100,0.20,,,0.73,WUHU21623XXSP,2013-09-22 06:17:00,
2013-09-22 02:22:00,64.8,64.8,29.66,North,0,0.0,0.0,100,0.21,,,0.76,WUHU21623XXSP,2013-09-22 06:22:00,
2013-09-22 02:27:00,64.8,64.8,29.66,North,0,0.0,5.4,100,0.19,,,0.76,WUHU21623XXSP,2013-09-22 06:27:00,
2013-09-22 02:33:00,64.6,64.6,29.68,North,0,0.0,0.0,100,0.17,,,0.76,WUHU21623XXSP,2013-09-22 06:33:00,
2013-09-22 02:38:00,64.4,64.4,29.69,North,0,0.0,0.0,100,0.17,,,0.78,WUHU21623XXSP,2013-09-22 06:38:00,
2013-09-22 02:43:00,64.4,64.4,29.68,NNW,337,0.0,0.0,100,0.17,,,0.80,WUHU21623XXSP,2013-09-22 06:43:00,
2013-09-22 02:48:00,64.2,64.2,29.67,NNW,337,0.0,0.0,100,0.19,,,0.84,WUHU21623XXSP,2013-09-22 06:48:00,
2013-09-22 02:53:00,64.0,64.0,29.67,NNW,337,0.0,1.1,100,0.19,,,0.86,WUHU21623XXSP,2013-09-22 06:53:00,
2013-09-22 02:58:00,64.0,64.0,29.66,NNW,337,0.0,1.1,100,0.19,,,0.88,WUHU21623XXSP,2013-09-22 06:58:00,
2013-09-22 03:03:00,63.9,63.9,29.66,NNW,337,0.0,0.0,100,0.17,,,0.88,WUHU21623XXSP,2013-09-22 07:03:00,
2013-09-22 03:08:00,63.9,63.9,29.66,NNW,337,0.0,0.9,100,0.19,,,0.90,WUHU21623XXSP,2013-09-22 07:08:00,
2013-09-22 03:13:00,63.7,63.7,29.66,NNW,337,0.0,0.9,100,0.17,,,0.90,WUHU21623XXSP,2013-09-22 07:13:00,
2013-09-22 03:18:00,63.7,63.7,29.66,NNW,337,0.0,0.0,100,0.17,,,0.90,WUHU21623XXSP,2013-09-22 07:18:00,
2013-09-22 03:23:00,63.5,63.5,29.66,NNW,337,0.0,0.0,100,0.16,,,0.92,WUHU21623XXSP,2013-09-22 07:23:00,
2013-09-22 03:28:00,63.5,63.5,29.67,NNW,337,0.0,0.0,100,0.16,,,0.92,WUHU21623XXSP,2013-09-22 07:28:00,
2013-09-22 03:33:00,63.5,63.5,29.67,NNW,337,0.0,1.6,100,0.16,,,0.92,WUHU21623XXSP,2013-09-22 07:33:00,
2013-09-22 03:38:00,63.5,63.5,29.67,NNW,337,0.0,1.6,100,0.14,,,0.92,WUHU21623XXSP,2013-09-22 07:38:00,
2013-09-22 03:43:00,63.5,63.5,29.66,East,101,0.3,1.6,100,0.12,,,0.92,WUHU21623XXSP,2013-09-22 07:43:00,
2013-09-22 03:48:00,63.5,63.5,29.67,North,0,0.0,1.6,100,0.08,,,0.92,WUHU21623XXSP,2013-09-22 07:48:00,
2013-09-22 03:53:00,63.5,63.5,29.67,North,0,0.0,0.9,100,0.06,,,0.92,WUHU21623XXSP,2013-09-22 07:53:00,
2013-09-22 03:58:00,63.3,63.3,29.67,North,0,0.0,0.0,100,0.04,,,0.92,WUHU21623XXSP,2013-09-22 07:58:00,
2013-09-22 04:03:00,63.3,63.3,29.67,North,0,0.0,0.0,100,0.04,,,0.92,WUHU21623XXSP,2013-09-22 08:03:00,
2013-09-22 04:08:00,63.3,63.3,29.67,North,0,0.0,0.0,100,0.02,,,0.92,WUHU21623XXSP,2013-09-22 08:08:00,
2013-09-22 04:13:00,63.1,63.1,29.67,North,0,0.0,0.0,100,0.02,,,0.92,WUHU21623XXSP,2013-09-22 08:13:00,
2013-09-22 04:18:00,63.0,63.0,29.67,North,0,0.0,0.0,100,0.02,,,0.92,WUHU21623XXSP,2013-09-22 08:18:00,
2013-09-22 04:23:00,63.0,63.0,29.67,North,0,0.0,0.0,100,0.00,,,0.92,WUHU21623XXSP,2013-09-22 08:23:00,
2013-09-22 04:28:00,63.1,63.1,29.67,North,0,0.0,0.0,100,0.00,,,0.92,WUHU21623XXSP,2013-09-22 08:28:00,
2013-09-22 04:33:00,63.0,63.0,29.67,North,0,0.0,0.0,100,0.00,,,0.92,WUHU21623XXSP,2013-09-22 08:33:00,
2013-09-22 04:39:00,63.0,63.0,29.67,North,0,0.0,0.0,100,0.00,,,0.92,WUHU21623XXSP,2013-09-22 08:39:00,
2013-09-22 04:44:00,63.0,63.0,29.67,North,0,0.0,0.0,100,0.00,,,0.92,WUHU21623XXSP,2013-09-22 08:44:00,
2013-09-22 04:49:00,63.1,63.1,29.67,North,0,0.0,0.0,100,0.00,,,0.92,WUHU21623XXSP,2013-09-22 08:49:00,
2013-09-22 04:54:00,63.0,63.0,29.69,North,0,0.0,0.0,100,0.00,,,0.92,WUHU21623XXSP,2013-09-22 08:54:00,
2013-09-22 04:59:00,63.0,63.0,29.69,NW,315,0.3,2.2,100,0.00,,,0.92,WUHU21623XXSP,2013-09-22 08:59:00,
2013-09-22 05:04:00,63.0,63.0,29.69,SSW,202,0.0,2.5,100,0.00,,,0.92,WUHU21623XXSP,2013-09-22 09:04:00,
2013-09-22 05:09:00,63.0,63.0,29.69,West,270,0.0,7.6,100,0.00,,,0.92,WUHU21623XXSP,2013-09-22 09:09:00,
2013-09-22 05:14:00,63.0,63.0,29.69,West,270,0.0,7.6,100,0.00,,,0.92,WUHU21623XXSP,2013-09-22 09:14:00,
2013-09-22 05:19:00,63.0,63.0,29.69,SSW,202,1.1,1.8,100,0.00,,,0.92,WUHU21623XXSP,2013-09-22 09:19:00,
2013-09-22 05:25:00,63.0,63.0,29.70,SW,222,0.6,2.7,100,0.00,,,0.92,WUHU21623XXSP,2013-09-22 09:25:00,
2013-09-22 05:30:00,63.0,63.0,29.69,NW,315,0.5,2.7,100,0.00,,,0.92,WUHU21623XXSP,2013-09-22 09:30:00,
2013-09-22 05:35:00,62.8,62.8,29.69,NW,315,0.0,2.0,100,0.00,,,0.92,WUHU21623XXSP,2013-09-22 09:35:00,
2013-09-22 05:40:00,63.0,63.0,29.70,NW,315,0.0,1.8,100,0.00,,,0.92,WUHU21623XXSP,2013-09-22 09:40:00,
2013-09-22 05:45:00,63.0,63.0,29.69,NW,315,0.0,1.8,100,0.00,,,0.92,WUHU21623XXSP,2013-09-22 09:45:00,
2013-09-22 05:50:00,63.0,63.0,29.69,NW,315,0.0,0.0,100,0.00,,,0.92,WUHU21623XXSP,2013-09-22 09:50:00,
2013-09-22 05:55:00,63.0,63.0,29.69,NW,315,0.0,0.0,100,0.00,,,0.92,WUHU21623XXSP,2013-09-22 09:55:00,
2013-09-22 06:00:00,63.0,63.0,29.69,NW,315,0.1,0.9,100,0.00,,,0.92,WUHU21623XXSP,2013-09-22 10:00:00,
2013-09-22 06:05:00,63.0,63.0,29.69,NW,315,0.0,2.2,100,0.00,,,0.92,WUHU21623XXSP,2013-09-22 10:05:00,
2013-09-22 06:10:00,63.0,63.0,29.69,NNE,22,0.0,2.7,100,0.00,,,0.92,WUHU21623XXSP,2013-09-22 10:10:00,
2013-09-22 06:15:00,62.8,62.8,29.69,NNE,22,0.0,2.7,100,0.00,,,0.92,WUHU21623XXSP,2013-09-22 10:15:00,
2013-09-22 06:20:00,62.8,62.8,29.69,NNE,22,0.0,0.9,100,0.00,,,0.92,WUHU21623XXSP,2013-09-22 10:20:00,
2013-09-22 06:25:00,62.8,62.8,29.70,NNE,22,0.1,0.9,100,0.00,,,0.92,WUHU21623XXSP,2013-09-22 10:25:00,
2013-09-22 06:30:00,62.8,62.8,29.70,NNW,337,0.1,0.9,100,0.00,,,0.92,WUHU21623XXSP,2013-09-22 10:30:00,
2013-09-22 06:35:00,62.6,62.6,29.70,NNW,337,0.0,0.9,100,0.00,,,0.92,WUHU21623XXSP,2013-09-22 10:35:00,
2013-09-22 06:40:00,62.8,62.8,29.70,SW,232,0.3,4.0,100,0.00,,,0.92,WUHU21623XXSP,2013-09-22 10:40:00,
2013-09-22 06:45:00,62.6,62.6,29.70,North,0,0.0,4.0,100,0.00,,,0.92,WUHU21623XXSP,2013-09-22 10:45:00,
2013-09-22 06:50:00,62.4,62.4,29.71,NW,315,0.2,1.3,100,0.00,,,0.92,WUHU21623XXSP,2013-09-22 10:50:00,
2013-09-22 06:55:00,62.4,62.4,29.71,NW,315,0.0,1.3,100,0.00,,,0.92,WUHU21623XXSP,2013-09-22 10:55:00,
2013-09-22 07:00:00,62.2,62.2,29.71,NW,315,0.0,1.3,100,0.00,,,0.92,WUHU21623XXSP,2013-09-22 11:00:00,
2013-09-22 07:05:00,62.2,62.2,29.71,NW,315,0.0,1.6,100,0.00,,,0.92,WUHU21623XXSP,2013-09-22 11:05:00,
2013-09-22 07:10:00,62.2,62.2,29.71,North,0,0.2,1.6,100,0.00,,,0.92,WUHU21623XXSP,2013-09-22 11:10:00,
2013-09-22 07:17:00,62.2,62.2,29.71,WNW,292,1.3,5.1,100,0.00,,,0.92,WUHU21623XXSP,2013-09-22 11:17:00,
2013-09-22 07:22:00,62.1,62.1,29.71,NNW,337,0.2,5.1,100,0.00,,,0.92,WUHU21623XXSP,2013-09-22 11:22:00,
2013-09-22 07:27:00,62.1,62.1,29.71,NNW,337,0.3,6.3,100,0.00,,,0.92,WUHU21623XXSP,2013-09-22 11:27:00,
2013-09-22 07:32:00,61.9,61.9,29.71,North,0,0.1,6.3,100,0.00,,,0.92,WUHU21623XXSP,2013-09-22 11:32:00,
2013-09-22 07:37:00,61.9,61.9,29.71,NNW,337,1.6,2.0,100,0.00,,,0.92,WUHU21623XXSP,2013-09-22 11:37:00,
2013-09-22 07:42:00,61.7,61.7,29.72,NW,315,2.0,5.1,100,0.00,,,0.92,WUHU21623XXSP,2013-09-22 11:42:00,
2013-09-22 07:47:00,61.7,61.7,29.72,NNE,22,2.2,5.8,100,0.00,,,0.92,WUHU21623XXSP,2013-09-22 11:47:00,
2013-09-22 07:52:00,61.7,61.7,29.72,NE,41,0.8,5.8,100,0.00,,,0.92,WUHU21623XXSP,2013-09-22 11:52:00,
2013-09-22 07:57:00,61.5,61.5,29.72,NNW,342,1.9,6.3,100,0.00,,,0.92,WUHU21623XXSP,2013-09-22 11:57:00,
2013-09-22 08:02:00,61.3,61.3,29.72,North,4,2.2,10.5,100,0.00,,,0.92,WUHU21623XXSP,2013-09-22 12:02:00,
2013-09-22 08:07:00,61.2,61.2,29.72,North,0,0.4,10.5,100,0.00,,,0.92,WUHU21623XXSP,2013-09-22 12:07:00,
2013-09-22 08:12:00,61.2,61.2,29.72,NNW,346,0.5,4.3,100,0.00,,,0.92,WUHU21623XXSP,2013-09-22 12:12:00,
2013-09-22 08:17:00,61.2,61.2,29.72,NNW,337,0.5,3.4,100,0.00,,,0.92,WUHU21623XXSP,2013-09-22 12:17:00,
2013-09-22 08:22:00,61.0,61.0,29.72,NNW,337,6.0,6.0,100,0.00,,,0.92,WUHU21623XXSP,2013-09-22 12:22:00,
2013-09-22 08:27:00,61.0,61.0,29.72,North,0,0.0,6.0,100,0.00,,,0.92,WUHU21623XXSP,2013-09-22 12:27:00,
2013-09-22 08:32:00,61.2,61.2,29.72,West,273,2.2,5.4,100,0.00,,,0.92,WUHU21623XXSP,2013-09-22 12:32:00,
2013-09-22 08:37:00,61.3,61.3,29.73,North,4,1.3,5.8,100,0.00,,,0.92,WUHU21623XXSP,2013-09-22 12:37:00,
2013-09-22 08:42:00,61.5,61.5,29.73,NNW,337,0.1,5.8,100,0.00,,,0.92,WUHU21623XXSP,2013-09-22 12:42:00,
2013-09-22 08:47:00,61.5,61.5,29.73,NNE,14,2.7,7.2,100,0.00,,,0.92,WUHU21623XXSP,2013-09-22 12:47:00,
2013-09-22 08:52:00,61.5,61.5,29.73,North,352,0.8,7.2,100,0.00,,,0.92,WUHU21623XXSP,2013-09-22 12:52:00,
2013-09-22 08:57:00,61.5,61.5,29.74,NE,35,1.6,8.7,100,0.00,,,0.92,WUHU21623XXSP,2013-09-22 12:57:00,
2013-09-22 09:02:00,61.5,61.5,29.74,NNE,15,0.5,8.7,100,0.00,,,0.92,WUHU21623XXSP,2013-09-22 13:02:00,
2013-09-22 09:07:00,61.5,61.5,29.74,NNE,22,2.5,5.6,100,0.00,,,0.92,WUHU21623XXSP,2013-09-22 13:07:00,
2013-09-22 09:12:00,61.5,61.5,29.74,NNE,23,1.4,7.6,100,0.00,,,0.92,WUHU21623XXSP,2013-09-22 13:12:00,
2013-09-22 09:17:00,61.7,61.7,29.74,East,90,0.9,7.6,100,0.00,,,0.92,WUHU21623XXSP,2013-09-22 13:17:00,
2013-09-22 09:23:00,61.7,61.7,29.74,NNE,22,2.2,4.3,100,0.00,,,0.92,WUHU21623XXSP,2013-09-22 13:23:00,
2013-09-22 09:28:00,61.9,61.9,29.74,NNE,22,0.0,6.9,100,0.00,,,0.92,WUHU21623XXSP,2013-09-22 13:28:00,
2013-09-22 09:33:00,62.1,62.1,29.74,NNW,337,1.3,6.9,100,0.00,,,0.92,WUHU21623XXSP,2013-09-22 13:33:00,
2013-09-22 09:38:00,62.2,61.7,29.74,North,6,1.6,7.6,98,0.00,,,0.92,WUHU21623XXSP,2013-09-22 13:38:00,
2013-09-22 09:43:00,62.4,61.3,29.74,North,0,2.9,7.6,96,0.00,,,0.92,WUHU21623XXSP,2013-09-22 13:43:00,
2013-09-22 09:48:00,62.6,60.9,29.74,North,6,2.5,9.4,94,0.00,,,0.92,WUHU21623XXSP,2013-09-22 13:48:00,
2013-09-22 09:53:00,62.8,60.2,29.74,NNE,23,1.1,9.4,91,0.00,,,0.92,WUHU21623XXSP,2013-09-22 13:53:00,
2013-09-22 09:58:00,63.0,59.7,29.74,NNE,20,1.8,8.7,89,0.00,,,0.92,WUHU21623XXSP,2013-09-22 13:58:00,
2013-09-22 10:03:00,63.3,59.7,29.74,SSW,202,4.0,6.9,88,0.00,,,0.92,WUHU21623XXSP,2013-09-22 14:03:00,
2013-09-22 10:08:00,63.5,59.0,29.74,NNE,15,2.4,6.9,85,0.00,,,0.92,WUHU21623XXSP,2013-09-22 14:08:00,
2013-09-22 10:13:00,63.7,58.2,29.74,North,9,1.7,5.8,82,0.00,,,0.92,WUHU21623XXSP,2013-09-22 14:13:00,
2013-09-22 10:18:00,64.0,58.5,29.74,SSE,157,1.3,5.8,82,0.00,,,0.92,WUHU21623XXSP,2013-09-22 14:18:00,
2013-09-22 10:23:00,64.6,59.1,29.75,NNE,22,0.9,2.9,82,0.00,,,0.92,WUHU21623XXSP,2013-09-22 14:23:00,
2013-09-22 10:28:00,64.9,58.7,29.75,NNE,22,10.1,10.1,80,0.00,,,0.92,WUHU21623XXSP,2013-09-22 14:28:00,
2013-09-22 10:33:00,65.1,57.9,29.75,North,359,2.7,10.1,77,0.00,,,0.92,WUHU21623XXSP,2013-09-22 14:33:00,
2013-09-22 10:38:00,65.3,57.0,29.75,NNE,22,7.6,8.3,74,0.00,,,0.92,WUHU21623XXSP,2013-09-22 14:38:00,
2013-09-22 10:43:00,65.3,55.9,29.75,North,2,3.4,7.6,71,0.00,,,0.92,WUHU21623XXSP,2013-09-22 14:43:00,
2013-09-22 10:48:00,65.7,56.6,29.75,NNE,22,2.9,6.0,72,0.00,,,0.92,WUHU21623XXSP,2013-09-22 14:48:00,
2013-09-22 10:53:00,66.2,57.5,29.75,NNW,337,6.3,7.8,73,0.00,,,0.92,WUHU21623XXSP,2013-09-22 14:53:00,
2013-09-22 10:58:00,66.4,55.8,29.75,North,0,2.7,7.8,68,0.00,,,0.92,WUHU21623XXSP,2013-09-22 14:58:00,
2013-09-22 11:03:00,66.4,55.8,29.75,North,2,1.4,6.5,68,0.00,,,0.92,WUHU21623XXSP,2013-09-22 15:03:00,
2013-09-22 11:08:00,66.6,55.6,29.75,ENE,67,4.7,8.5,67,0.00,,,0.92,WUHU21623XXSP,2013-09-22 15:08:00,
2013-09-22 11:13:00,66.6,55.1,29.75,East,90,3.8,8.5,66,0.00,,,0.92,WUHU21623XXSP,2013-09-22 15:13:00,
2013-09-22 11:18:00,66.6,54.7,29.75,NNE,12,2.1,6.5,65,0.00,,,0.92,WUHU21623XXSP,2013-09-22 15:18:00,
2013-09-22 11:23:00,67.1,55.6,29.74,NNE,22,5.4,6.5,66,0.00,,,0.92,WUHU21623XXSP,2013-09-22 15:23:00,
2013-09-22 11:29:00,67.3,55.4,29.75,North,350,2.0,6.5,65,0.00,,,0.92,WUHU21623XXSP,2013-09-22 15:29:00,
2013-09-22 11:34:00,67.6,55.7,29.75,NW,321,2.0,5.8,65,0.00,,,0.92,WUHU21623XXSP,2013-09-22 15:34:00,
2013-09-22 11:39:00,67.8,55.0,29.75,North,11,5.3,11.0,63,0.00,,,0.92,WUHU21623XXSP,2013-09-22 15:39:00,
2013-09-22 11:44:00,67.6,54.8,29.75,North,357,2.9,11.0,63,0.00,,,0.92,WUHU21623XXSP,2013-09-22 15:44:00,
2013-09-22 11:49:00,68.2,55.8,29.75,NW,323,1.6,7.4,64,0.00,,,0.92,WUHU21623XXSP,2013-09-22 15:49:00,
2013-09-22 11:54:00,68.4,55.6,29.75,South,180,1.6,7.4,63,0.00,,,0.92,WUHU21623XXSP,2013-09-22 15:54:00,
2013-09-22 12:00:00,68.2,54.9,29.75,ENE,59,2.8,6.9,62,0.00,,,0.92,WUHU21623XXSP,2013-09-22 16:00:00,
2013-09-22 12:05:00,68.2,54.9,29.75,NW,319,2.5,9.2,62,0.00,,,0.92,WUHU21623XXSP,2013-09-22 16:05:00,
2013-09-22 12:11:00,68.4,55.1,29.75,WNW,292,3.6,9.2,62,0.00,,,0.92,WUHU21623XXSP,2013-09-22 16:11:00,
2013-09-22 12:15:00,68.4,54.2,29.75,NNW,336,2.7,8.9,60,0.00,,,0.92,WUHU21623XXSP,2013-09-22 16:15:00,
2013-09-22 12:20:00,68.4,54.7,29.75,North,349,3.5,8.9,61,0.00,,,0.92,WUHU21623XXSP,2013-09-22 16:20:00,
2013-09-22 12:25:00,68.4,54.2,29.76,WNW,299,3.2,8.9,60,0.00,,,0.92,WUHU21623XXSP,2013-09-22 16:25:00,
2013-09-22 12:32:00,68.4,53.8,29.76,West,270,2.2,7.4,59,0.00,,,0.92,WUHU21623XXSP,2013-09-22 16:32:00,
2013-09-22 12:37:00,68.4,54.7,29.76,NE,45,6.7,8.1,61,0.00,,,0.92,WUHU21623XXSP,2013-09-22 16:37:00,
2013-09-22 12:42:00,68.5,54.3,29.76,North,358,2.9,8.1,60,0.00,,,0.92,WUHU21623XXSP,2013-09-22 16:42:00,
2013-09-22 12:47:00,68.4,54.2,29.76,NNW,347,4.0,6.7,60,0.00,,,0.92,WUHU21623XXSP,2013-09-22 16:47:00,
2013-09-22 12:52:00,68.7,54.5,29.76,NNE,22,2.9,6.7,60,0.00,,,0.92,WUHU21623XXSP,2013-09-22 16:52:00,
2013-09-22 12:57:00,68.9,54.2,29.76,NE,37,1.5,8.5,59,0.00,,,0.92,WUHU21623XXSP,2013-09-22 16:57:00,
2013-09-22 13:03:00,68.9,54.2,29.76,West,273,2.1,5.1,59,0.00,,,0.92,WUHU21623XXSP,2013-09-22 17:03:00,
2013-09-22 13:08:00,69.4,55.2,29.76,ENE,67,4.0,8.1,60,0.00,,,0.92,WUHU21623XXSP,2013-09-22 17:08:00,
2013-09-22 13:13:00,69.8,55.1,29.76,NW,325,2.1,8.1,59,0.00,,,0.92,WUHU21623XXSP,2013-09-22 17:13:00,
2013-09-22 13:18:00,70.0,55.3,29.76,NW,315,4.7,4.7,59,0.00,,,0.92,WUHU21623XXSP,2013-09-22 17:18:00,
2013-09-22 13:23:00,69.6,53.9,29.76,NW,323,2.5,8.1,57,0.00,,,0.92,WUHU21623XXSP,2013-09-22 17:23:00,
2013-09-22 13:28:00,69.3,53.2,29.76,NNW,337,4.7,10.5,56,0.00,,,0.92,WUHU21623XXSP,2013-09-22 17:28:00,
2013-09-22 13:33:00,68.9,52.8,29.76,North,0,2.9,11.0,56,0.00,,,0.92,WUHU21623XXSP,2013-09-22 17:33:00,
2013-09-22 13:38:00,68.9,52.8,29.76,East,90,3.8,11.0,56,0.00,,,0.92,WUHU21623XXSP,2013-09-22 17:38:00,
2013-09-22 13:43:00,69.3,53.7,29.76,WNW,285,3.2,9.2,57,0.00,,,0.92,WUHU21623XXSP,2013-09-22 17:43:00,
2013-09-22 13:48:00,69.6,53.9,29.76,NW,315,2.9,9.2,57,0.00,,,0.92,WUHU21623XXSP,2013-09-22 17:48:00,
2013-09-22 13:53:00,70.2,54.5,29.76,North,358,1.5,6.5,57,0.00,,,0.92,WUHU21623XXSP,2013-09-22 17:53:00,
2013-09-22 13:58:00,70.5,54.8,29.76,North,354,3.0,5.4,57,0.00,,,0.92,WUHU21623XXSP,2013-09-22 17:58:00,
2013-09-22 14:03:00,70.5,54.8,29.75,NNE,22,4.5,5.4,57,0.00,,,0.92,WUHU21623XXSP,2013-09-22 18:03:00,
2013-09-22 14:08:00,70.3,54.1,29.76,North,6,4.7,10.1,56,0.00,,,0.92,WUHU21623XXSP,2013-09-22 18:08:00,
2013-09-22 14:13:00,69.8,53.1,29.76,North,355,2.2,10.1,55,0.00,,,0.92,WUHU21623XXSP,2013-09-22 18:13:00,
2013-09-22 14:18:00,69.3,52.7,29.75,North,357,2.8,6.3,55,0.00,,,0.92,WUHU21623XXSP,2013-09-22 18:18:00,
2013-09-22 14:23:00,68.9,52.3,29.75,North,9,3.1,6.0,55,0.00,,,0.92,WUHU21623XXSP,2013-09-22 18:23:00,
2013-09-22 14:28:00,69.1,52.5,29.76,SW,225,3.4,7.2,55,0.00,,,0.92,WUHU21623XXSP,2013-09-22 18:28:00,
2013-09-22 14:33:00,68.7,51.6,29.76,NNW,335,2.4,7.2,54,0.00,,,0.92,WUHU21623XXSP,2013-09-22 18:33:00,
2013-09-22 14:38:00,68.5,52.4,29.76,NNW,343,2.7,6.9,56,0.00,,,0.92,WUHU21623XXSP,2013-09-22 18:38:00,
2013-09-22 14:43:00,68.9,52.8,29.76,NNE,17,1.1,7.4,56,0.00,,,0.92,WUHU21623XXSP,2013-09-22 18:43:00,
2013-09-22 14:48:00,69.3,53.7,29.75,NNW,329,2.7,7.4,57,0.00,,,0.92,WUHU21623XXSP,2013-09-22 18:48:00,
2013-09-22 14:53:00,69.4,53.3,29.76,NNW,334,2.4,7.4,56,0.00,,,0.92,WUHU21623XXSP,2013-09-22 18:53:00,
2013-09-22 14:58:00,69.3,53.2,29.76,NNE,18,0.6,4.0,56,0.00,,,0.92,WUHU21623XXSP,2013-09-22 18:58:00,
2013-09-22 15:03:00,68.9,52.3,29.76,North,356,1.4,5.8,55,0.00,,,0.92,WUHU21623XXSP,2013-09-22 19:03:00,
2013-09-22 15:09:00,68.4,51.8,29.76,South,180,6.5,6.7,55,0.00,,,0.92,WUHU21623XXSP,2013-09-22 19:09:00,
2013-09-22 15:14:00,68.2,51.1,29.76,NW,322,4.3,7.2,54,0.00,,,0.92,WUHU21623XXSP,2013-09-22 19:14:00,
2013-09-22 15:19:00,68.2,51.6,29.76,NNW,337,4.3,7.2,55,0.00,,,0.92,WUHU21623XXSP,2013-09-22 19:19:00,
2013-09-22 15:24:00,67.8,51.3,29.76,NW,305,2.4,8.5,55,0.00,,,0.92,WUHU21623XXSP,2013-09-22 19:24:00,
2013-09-22 15:29:00,67.8,51.8,29.76,NNE,23,2.3,8.5,56,0.00,,,0.92,WUHU21623XXSP,2013-09-22 19:29:00,
2013-09-22 15:34:00,67.6,51.6,29.76,North,354,1.9,6.7,56,0.00,,,0.92,WUHU21623XXSP,2013-09-22 19:34:00,
2013-09-22 15:39:00,67.6,51.6,29.76,SE,128,1.4,6.3,56,0.00,,,0.92,WUHU21623XXSP,2013-09-22 19:39:00,
2013-09-22 15:44:00,67.5,52.0,29.76,North,0,4.5,6.3,57,0.00,,,0.92,WUHU21623XXSP,2013-09-22 19:44:00,
2013-09-22 15:49:00,67.3,51.8,29.76,NNE,21,4.1,6.0,57,0.00,,,0.92,WUHU21623XXSP,2013-09-22 19:49:00,
2013-09-22 15:54:00,67.1,51.6,29.76,North,354,5.3,9.6,57,0.00,,,0.92,WUHU21623XXSP,2013-09-22 19:54:00,
2013-09-22 15:59:00,67.1,51.6,29.77,NW,318,2.9,9.6,57,0.00,,,0.92,WUHU21623XXSP,2013-09-22 19:59:00,
2013-09-22 16:04:00,67.1,52.1,29.77,NW,315,2.7,8.9,58,0.00,,,0.92,WUHU21623XXSP,2013-09-22 20:04:00,
2013-09-22 16:09:00,67.1,51.6,29.76,North,0,2.9,8.9,57,0.00,,,0.92,WUHU21623XXSP,2013-09-22 20:09:00,
2013-09-22 16:14:00,66.9,52.4,29.77,North,4,1.9,4.3,59,0.00,,,0.92,WUHU21623XXSP,2013-09-22 20:14:00,
2013-09-22 16:19:00,66.6,51.6,29.76,North,0,1.8,11.4,58,0.00,,,0.92,WUHU21623XXSP,2013-09-22 20:19:00,
2013-09-22 16:24:00,66.6,51.1,29.77,North,358,3.6,13.2,57,0.00,,,0.92,WUHU21623XXSP,2013-09-22 20:24:00,
2013-09-22 16:29:00,66.0,50.6,29.77,North,0,5.6,13.2,57,0.00,,,0.92,WUHU21623XXSP,2013-09-22 20:29:00,
2013-09-22 16:34:00,65.7,50.8,29.77,NNW,337,3.4,5.6,58,0.00,,,0.92,WUHU21623XXSP,2013-09-22 20:34:00,
2013-09-22 16:39:00,65.3,50.4,29.77,WNW,292,2.5,4.5,58,0.00,,,0.92,WUHU21623XXSP,2013-09-22 20:39:00,
2013-09-22 16:44:00,65.1,50.7,29.77,NNE,22,0.4,5.4,59,0.00,,,0.92,WUHU21623XXSP,2013-09-22 20:44:00,
2013-09-22 16:49:00,64.9,50.9,29.77,ENE,67,1.8,5.4,60,0.00,,,0.92,WUHU21623XXSP,2013-09-22 20:49:00,
2013-09-22 16:54:00,65.1,51.6,29.78,North,0,2.9,3.6,61,0.00,,,0.92,WUHU21623XXSP,2013-09-22 20:54:00,
2013-09-22 16:59:00,65.1,51.6,29.78,NW,310,1.2,5.8,61,0.00,,,0.92,WUHU21623XXSP,2013-09-22 20:59:00,
2013-09-22 17:04:00,65.1,51.6,29.78,North,349,3.7,7.6,61,0.00,,,0.92,WUHU21623XXSP,2013-09-22 21:04:00,
2013-09-22 17:09:00,65.1,51.1,29.78,NNW,344,2.8,7.8,60,0.00,,,0.92,WUHU21623XXSP,2013-09-22 21:09:00,
2013-09-22 17:15:00,65.1,51.1,29.78,NE,45,0.0,7.8,60,0.00,,,0.92,WUHU21623XXSP,2013-09-22 21:15:00,
2013-09-22 17:20:00,65.1,51.1,29.78,NNW,340,0.9,5.6,60,0.00,,,0.92,WUHU21623XXSP,2013-09-22 21:20:00,
2013-09-22 17:25:00,64.9,50.5,29.78,North,4,0.8,3.8,59,0.00,,,0.92,WUHU21623XXSP,2013-09-22 21:25:00,
2013-09-22 17:30:00,65.1,50.7,29.80,NNW,337,2.0,4.7,59,0.00,,,0.92,WUHU21623XXSP,2013-09-22 21:30:00,
2013-09-22 17:35:00,64.8,49.9,29.80,NNE,17,3.5,8.5,58,0.00,,,0.92,WUHU21623XXSP,2013-09-22 21:35:00,
2013-09-22 17:40:00,64.8,50.4,29.80,NW,311,1.5,8.5,59,0.00,,,0.92,WUHU21623XXSP,2013-09-22 21:40:00,
2013-09-22 17:47:00,65.1,51.1,29.80,NW,315,0.0,5.6,60,0.00,,,0.92,WUHU21623XXSP,2013-09-22 21:47:00,
2013-09-22 17:52:00,64.8,50.8,29.80,North,0,4.7,9.4,60,0.00,,,0.92,WUHU21623XXSP,2013-09-22 21:52:00,
2013-09-22 17:57:00,64.6,51.1,29.80,NW,320,0.9,9.4,61,0.00,,,0.92,WUHU21623XXSP,2013-09-22 21:57:00,
2013-09-22 18:02:00,64.0,50.5,29.80,North,0,5.8,5.8,61,0.00,,,0.92,WUHU21623XXSP,2013-09-22 22:02:00,
2013-09-22 18:07:00,63.7,50.2,29.80,NNE,22,0.1,5.8,61,0.00,,,0.92,WUHU21623XXSP,2013-09-22 22:07:00,
2013-09-22 18:12:00,63.5,50.5,29.80,NNE,22,0.0,3.6,62,0.00,,,0.92,WUHU21623XXSP,2013-09-22 22:12:00,
2013-09-22 18:17:00,63.3,51.2,29.80,ENE,67,0.1,1.1,64,0.00,,,0.92,WUHU21623XXSP,2013-09-22 22:17:00,
2013-09-22 18:22:00,63.3,51.2,29.80,North,0,0.0,1.1,64,0.00,,,0.92,WUHU21623XXSP,2013-09-22 22:22:00,
2013-09-22 18:27:00,63.1,51.4,29.80,North,0,0.5,3.8,65,0.00,,,0.92,WUHU21623XXSP,2013-09-22 22:27:00,
2013-09-22 18:32:00,63.0,51.3,29.80,NNW,337,4.9,4.9,65,0.00,,,0.92,WUHU21623XXSP,2013-09-22 22:32:00,
2013-09-22 18:37:00,62.8,50.7,29.80,North,8,0.7,7.4,64,0.00,,,0.92,WUHU21623XXSP,2013-09-22 22:37:00,
2013-09-22 18:42:00,62.8,50.7,29.80,North,9,1.1,7.4,64,0.00,,,0.92,WUHU21623XXSP,2013-09-22 22:42:00,
2013-09-22 18:47:00,62.6,50.1,29.80,North,0,3.4,12.8,63,0.00,,,0.92,WUHU21623XXSP,2013-09-22 22:47:00,
2013-09-22 18:52:00,62.4,49.9,29.81,North,0,0.9,12.8,63,0.00,,,0.92,WUHU21623XXSP,2013-09-22 22:52:00,
2013-09-22 18:57:00,62.2,50.1,29.81,NW,323,0.9,2.5,64,0.00,,,0.92,WUHU21623XXSP,2013-09-22 22:57:00,
2013-09-22 19:02:00,62.2,50.1,29.81,North,0,0.7,3.1,64,0.00,,,0.92,WUHU21623XXSP,2013-09-22 23:02:00,
2013-09-22 19:07:00,62.1,50.0,29.81,NW,315,2.7,4.7,64,0.00,,,0.92,WUHU21623XXSP,2013-09-22 23:07:00,
2013-09-22 19:12:00,61.7,49.6,29.82,North,354,2.6,4.7,64,0.00,,,0.92,WUHU21623XXSP,2013-09-22 23:12:00,
2013-09-22 19:17:00,61.5,49.0,29.81,North,0,2.2,5.8,63,0.00,,,0.92,WUHU21623XXSP,2013-09-22 23:17:00,
2013-09-22 19:22:00,61.3,48.8,29.82,NNE,22,0.3,8.7,63,0.00,,,0.92,WUHU21623XXSP,2013-09-22 23:22:00,
2013-09-22 19:27:00,61.2,48.7,29.82,North,0,8.1,8.7,63,0.00,,,0.92,WUHU21623XXSP,2013-09-22 23:27:00,
2013-09-22 19:32:00,61.0,48.5,29.83,NNE,22,0.9,8.1,63,0.00,,,0.92,WUHU21623XXSP,2013-09-22 23:32:00,
2013-09-22 19:37:00,60.8,48.8,29.83,North,5,1.7,4.9,64,0.00,,,0.92,WUHU21623XXSP,2013-09-22 23:37:00,
2013-09-22 19:42:00,60.4,48.4,29.83,North,0,0.6,4.0,64,0.00,,,0.92,WUHU21623XXSP,2013-09-22 23:42:00,
2013-09-22 19:47:00,60.4,48.8,29.84,WNW,292,0.9,4.0,65,0.00,,,0.92,WUHU21623XXSP,2013-09-22 23:47:00,
2013-09-22 19:52:00,60.3,48.7,29.84,North,0,4.0,4.0,65,0.00,,,0.92,WUHU21623XXSP,2013-09-22 23:52:00,
2013-09-22 19:57:00,60.1,48.5,29.84,NW,323,1.2,4.5,65,0.00,,,0.92,WUHU21623XXSP,2013-09-22 23:57:00,
2013-09-22 20:02:00,59.9,48.3,29.84,North,0,1.6,5.1,65,0.00,,,0.92,WUHU21623XXSP,2013-09-23 00:02:00,
2013-09-22 20:07:00,59.9,48.3,29.84,NNW,337,2.0,5.4,65,0.00,,,0.92,WUHU21623XXSP,2013-09-23 00:07:00,
2013-09-22 20:12:00,59.7,48.5,29.84,NE,37,0.5,5.4,66,0.00,,,0.92,WUHU21623XXSP,2013-09-23 00:12:00,
2013-09-22 20:17:00,59.7,48.5,29.85,NE,45,2.5,4.7,66,0.00,,,0.92,WUHU21623XXSP,2013-09-23 00:17:00,
2013-09-22 20:22:00,59.5,48.4,29.85,NNW,337,0.8,3.4,66,0.00,,,0.92,WUHU21623XXSP,2013-09-23 00:22:00,
2013-09-22 20:27:00,59.4,48.3,29.85,NNW,337,1.1,5.1,66,0.00,,,0.92,WUHU21623XXSP,2013-09-23 00:27:00,
2013-09-22 20:32:00,59.4,48.3,29.86,NNW,337,0.2,5.1,66,0.00,,,0.92,WUHU21623XXSP,2013-09-23 00:32:00,
2013-09-22 20:37:00,59.2,48.1,29.86,North,0,2.2,3.8,66,0.00,,,0.92,WUHU21623XXSP,2013-09-23 00:37:00,
2013-09-22 20:42:00,59.2,48.1,29.86,North,0,1.3,3.8,66,0.00,,,0.92,WUHU21623XXSP,2013-09-23 00:42:00,
2013-09-22 20:47:00,59.0,48.3,29.86,NNE,22,4.3,6.9,67,0.00,,,0.92,WUHU21623XXSP,2013-09-23 00:47:00,
2013-09-22 20:52:00,58.6,47.9,29.86,WNW,292,0.6,6.9,67,0.00,,,0.92,WUHU21623XXSP,2013-09-23 00:52:00,
2013-09-22 20:57:00,58.6,47.9,29.86,NW,315,0.5,6.0,67,0.00,,,0.92,WUHU21623XXSP,2013-09-23 00:57:00,
2013-09-22 21:02:00,58.6,47.9,29.88,North,0,0.6,4.0,67,0.00,,,0.92,WUHU21623XXSP,2013-09-23 01:02:00,
2013-09-22 21:07:00,58.5,47.8,29.88,North,0,1.2,5.8,67,0.00,,,0.92,WUHU21623XXSP,2013-09-23 01:07:00,
2013-09-22 21:12:00,58.3,47.6,29.86,North,0,0.4,5.8,67,0.00,,,0.92,WUHU21623XXSP,2013-09-23 01:12:00,
2013-09-22 21:17:00,58.1,47.4,29.88,North,0,1.4,2.9,67,0.00,,,0.92,WUHU21623XXSP,2013-09-23 01:17:00,
2013-09-22 21:22:00,58.1,47.8,29.88,NNW,337,0.9,2.9,68,0.00,,,0.92,WUHU21623XXSP,2013-09-23 01:22:00,
2013-09-22 21:27:00,57.9,48.0,29.88,NNW,337,2.2,2.9,69,0.00,,,0.92,WUHU21623XXSP,2013-09-23 01:27:00,
2013-09-22 21:32:00,57.9,48.4,29.88,NNW,337,0.0,2.2,70,0.00,,,0.92,WUHU21623XXSP,2013-09-23 01:32:00,
2013-09-22 21:37:00,57.7,47.8,29.88,North,0,0.5,3.4,69,0.00,,,0.92,WUHU21623XXSP,2013-09-23 01:37:00,
2013-09-22 21:42:00,57.6,47.7,29.88,North,0,0.3,5.1,69,0.00,,,0.92,WUHU21623XXSP,2013-09-23 01:42:00,
2013-09-22 21:47:00,57.4,47.9,29.88,North,0,0.1,5.1,70,0.00,,,0.92,WUHU21623XXSP,2013-09-23 01:47:00,
2013-09-22 21:52:00,57.4,47.9,29.89,North,0,0.7,2.2,70,0.00,,,0.92,WUHU21623XXSP,2013-09-23 01:52:00,
2013-09-22 21:57:00,57.2,47.7,29.88,North,0,2.5,4.0,70,0.00,,,0.92,WUHU21623XXSP,2013-09-23 01:57:00,
2013-09-22 22:02:00,57.0,47.5,29.89,North,0,1.7,4.7,70,0.00,,,0.92,WUHU21623XXSP,2013-09-23 02:02:00,
2013-09-22 22:08:00,56.8,47.3,29.89,North,0,2.7,4.7,70,0.00,,,0.92,WUHU21623XXSP,2013-09-23 02:08:00,
2013-09-22 22:13:00,56.8,47.3,29.89,North,0,0.4,3.6,70,0.00,,,0.92,WUHU21623XXSP,2013-09-23 02:13:00,
2013-09-22 22:18:00,56.7,47.6,29.90,North,0,0.4,3.1,71,0.00,,,0.92,WUHU21623XXSP,2013-09-23 02:18:00,
2013-09-22 22:23:00,56.7,47.6,29.90,North,0,2.2,5.1,71,0.00,,,0.92,WUHU21623XXSP,2013-09-23 02:23:00,
2013-09-22 22:28:00,56.5,47.0,29.90,North,0,1.2,5.1,70,0.00,,,0.92,WUHU21623XXSP,2013-09-23 02:28:00,
2013-09-22 22:33:00,56.3,46.8,29.90,NW,315,1.6,2.5,70,0.00,,,0.92,WUHU21623XXSP,2013-09-23 02:33:00,
2013-09-22 22:38:00,56.3,46.8,29.90,North,0,0.9,2.2,70,0.00,,,0.92,WUHU21623XXSP,2013-09-23 02:38:00,
2013-09-22 22:43:00,56.1,47.0,29.90,North,0,0.0,2.7,71,0.00,,,0.92,WUHU21623XXSP,2013-09-23 02:43:00,
2013-09-22 22:48:00,56.1,47.0,29.90,NNE,22,1.1,3.8,71,0.00,,,0.92,WUHU21623XXSP,2013-09-23 02:48:00,
2013-09-22 22:53:00,55.8,46.7,29.90,NNE,22,2.9,4.0,71,0.00,,,0.92,WUHU21623XXSP,2013-09-23 02:53:00,
2013-09-22 22:58:00,55.8,46.7,29.90,NE,45,1.3,5.4,71,0.00,,,0.92,WUHU21623XXSP,2013-09-23 02:58:00,
2013-09-22 23:03:00,55.8,46.7,29.90,NNW,337,1.0,5.4,71,0.00,,,0.92,WUHU21623XXSP,2013-09-23 03:03:00,
2013-09-22 23:08:00,55.6,46.5,29.91,NNW,337,0.0,3.8,71,0.00,,,0.92,WUHU21623XXSP,2013-09-23 03:08:00,
2013-09-22 23:13:00,55.4,46.7,29.91,NNW,337,0.0,3.8,72,0.00,,,0.92,WUHU21623XXSP,2013-09-23 03:13:00,
2013-09-22 23:18:00,55.2,46.5,29.90,NNW,337,0.5,3.6,72,0.00,,,0.92,WUHU21623XXSP,2013-09-23 03:18:00,
2013-09-22 23:23:00,55.0,46.3,29.91,NNW,337,0.3,3.6,72,0.00,,,0.92,WUHU21623XXSP,2013-09-23 03:23:00,
2013-09-22 23:28:00,54.9,46.2,29.91,NNW,337,0.0,1.8,72,0.00,,,0.92,WUHU21623XXSP,2013-09-23 03:28:00,
2013-09-22 23:33:00,54.9,46.2,29.91,NNW,337,0.0,1.8,72,0.00,,,0.92,WUHU21623XXSP,2013-09-23 03:33:00,
2013-09-22 23:38:00,54.7,46.0,29.90,NNW,337,0.0,3.8,72,0.00,,,0.92,WUHU21623XXSP,2013-09-23 03:38:00,
2013-09-22 23:43:00,54.7,46.4,29.91,NNW,337,0.1,3.8,73,0.00,,,0.92,WUHU21623XXSP,2013-09-23 03:43:00,
2013-09-22 23:48:00,54.5,46.2,29.91,NNW,337,0.0,2.9,73,0.00,,,0.92,WUHU21623XXSP,2013-09-23 03:48:00,
2013-09-22 23:53:00,54.3,46.0,29.91,NNW,337,0.0,2.9,73,0.00,,,0.92,WUHU21623XXSP,2013-09-23 03:53:00,
2013-09-22 23:58:00,54.3,46.7,29.91,NNW,337,0.5,1.8,75,0.00,,,0.92,WUHU21623XXSP,2013-09-23 03:58:00,